Time;durP1;ratioP1;P1;durP2;ratioP2;P2;SDS_P1;SDS_P2;PMS_P1;PMS_P2;Temp;Humidity;BMP_temperature;BMP_pressure;BME280_temperature;BME280_humidity;BME280_pressure;Samples;Min_cycle;Max_cycle;Signal;HPM_P1;HPM_P2
2023/10/19 00:02:10;;;;;;;0.75;0.70;;;;;;;10.75;59.71;98974.44;5194121;27;20038;-65
2023/10/19 00:04:40;;;;;;;0.90;0.90;;;;;;;10.76;59.58;98964.25;5194440;27;20117;-69
2023/10/19 00:07:15;;;;;;;0.55;0.55;;;;;;;10.82;59.48;98970.13;5193905;27;20038;-69
2023/10/19 00:09:48;;;;;;;0.40;0.40;;;;;;;10.87;59.53;98963.25;5194146;27;20431;-68
2023/10/19 00:12:16;;;;;;;0.70;0.70;;;;;;;10.93;59.00;98951.25;5193868;27;20054;-65
2023/10/19 00:14:45;;;;;;;0.40;0.40;;;;;;;11.00;58.38;98952.00;5193705;27;20046;-66
2023/10/19 00:17:14;;;;;;;0.55;0.55;;;;;;;11.00;58.52;98947.75;5193693;27;20526;-71
2023/10/19 00:19:57;;;;;;;0.90;0.85;;;;;;;10.99;58.48;98946.03;5193580;27;20046;-70
2023/10/19 00:22:30;;;;;;;1.52;1.25;;;;;;;11.02;58.49;98945.16;5193613;27;20050;-70
2023/10/19 00:25:02;;;;;;;2.92;1.17;;;;;;;11.01;58.68;98940.94;5193671;27;20187;-69
2023/10/19 00:27:31;;;;;;;0.50;0.50;;;;;;;10.98;58.62;98936.72;5174789;27;20050;-69
2023/10/19 00:30:06;;;;;;;1.90;1.38;;;;;;;11.01;58.26;98940.94;5193716;27;20038;-70
2023/10/19 00:32:38;;;;;;;0.80;0.80;;;;;;;11.05;58.58;98935.75;5193683;27;20443;-67
2023/10/19 00:35:26;;;;;;;1.33;0.70;;;;;;;11.11;58.53;98929.72;5193294;27;20052;-69
2023/10/19 00:38:27;;;;;;;0.80;0.63;;;;;;;11.15;58.35;98932.22;5193381;27;20053;-69
2023/10/19 00:40:52;;;;;;;2.03;1.65;;;;;;;11.19;58.02;98921.06;5193152;27;20046;-69
2023/10/19 00:43:32;;;;;;;0.93;0.80;;;;;;;11.20;57.76;98915.09;5193586;27;20117;-68
2023/10/19 00:46:04;;;;;;;3.30;0.73;;;;;;;11.20;58.47;98920.22;5168467;27;20038;-69
2023/10/19 00:48:35;;;;;;;0.50;0.50;;;;;;;11.19;59.01;98903.19;5179055;27;20072;-66
2023/10/19 00:51:26;;;;;;;0.93;0.80;;;;;;;11.19;58.94;98905.75;5179141;27;20090;-69
2023/10/19 00:54:03;;;;;;;5.93;1.95;;;;;;;11.19;59.00;98907.44;5179339;27;20046;-66
2023/10/19 00:56:33;;;;;;;1.17;0.90;;;;;;;11.16;59.53;98881.94;5178911;27;20073;-68
2023/10/19 00:59:12;;;;;;;0.65;0.65;;;;;;;11.12;59.91;98886.28;5178821;27;20046;-68
2023/10/19 01:01:45;;;;;;;9.05;2.53;;;;;;;11.09;60.39;98882.91;5179364;27;20038;-64
2023/10/19 01:04:20;;;;;;;0.70;0.70;;;;;;;11.04;60.48;98882.13;5179197;27;20034;-67
2023/10/19 01:07:00;;;;;;;0.45;0.45;;;;;;;11.02;60.53;98879.63;5178821;27;20045;-69
2023/10/19 01:09:34;;;;;;;1.40;1.15;;;;;;;11.01;60.69;98877.09;5178632;27;20046;-66
2023/10/19 01:12:21;;;;;;;0.88;0.88;;;;;;;10.98;61.03;98877.13;5160220;27;20070;-70
2023/10/19 01:15:06;;;;;;;1.25;1.17;;;;;;;10.96;60.99;98863.56;5178870;27;20558;-69
2023/10/19 01:17:39;;;;;;;2.75;2.42;;;;;;;10.94;61.50;98860.19;5178966;27;20113;-66
2023/10/19 01:20:18;;;;;;;2.55;2.35;;;;;;;10.93;61.61;98853.38;5160209;27;20034;-68
2023/10/19 01:22:54;;;;;;;2.33;1.42;;;;;;;10.92;61.57;98844.06;5178738;27;20045;-64
2023/10/19 01:25:34;;;;;;;0.40;0.40;;;;;;;10.90;62.20;98848.31;5178399;27;20099;-67
2023/10/19 01:28:08;;;;;;;1.58;1.27;;;;;;;10.89;62.59;98850.06;5159916;27;20042;-69
2023/10/19 01:30:38;;;;;;;0.68;0.68;;;;;;;10.89;62.92;98836.44;5159761;27;20042;-67
2023/10/19 01:33:12;;;;;;;0.75;0.75;;;;;;;10.85;63.12;98835.63;5159925;27;20034;-68
2023/10/19 01:38:22;;;;;;;1.40;0.70;;;;;;;10.89;63.63;98836.44;5178222;27;20117;-70
2023/10/19 01:40:51;;;;;;;2.05;1.50;;;;;;;10.90;63.47;98822.78;5178023;27;20064;-70
2023/10/19 01:43:22;;;;;;;2.15;1.70;;;;;;;10.93;63.48;98827.88;5178655;27;20521;-68
2023/10/19 01:45:54;;;;;;;1.60;0.90;;;;;;;10.93;64.02;98818.50;5159741;27;20121;-71
2023/10/19 01:48:33;;;;;;;1.50;0.70;;;;;;;10.94;64.58;98820.16;5178252;27;20042;-67
2023/10/19 01:51:06;;;;;;;0.50;0.50;;;;;;;10.98;64.71;98820.97;5178141;27;20125;-69
2023/10/19 01:53:36;;;;;;;3.10;1.65;;;;;;;10.99;64.93;98822.69;5177879;27;20050;-70
2023/10/19 01:56:06;;;;;;;2.30;1.20;;;;;;;11.01;65.34;98820.94;5178026;27;20051;-70
2023/10/19 01:58:36;;;;;;;2.15;1.63;;;;;;;11.02;65.49;98807.28;5176724;27;20541;-71
2023/10/19 02:01:14;;;;;;;1.05;1.02;;;;;;;11.03;65.72;98806.44;5177693;27;20076;-71
2023/10/19 02:03:43;;;;;;;1.02;0.93;;;;;;;11.03;66.07;98814.94;5177630;27;20090;-66
2023/10/19 02:06:16;;;;;;;0.40;0.40;;;;;;;11.02;66.39;98817.50;5177489;27;20095;-71
2023/10/19 02:08:51;;;;;;;1.05;0.98;;;;;;;10.98;66.60;98805.66;5158941;27;20098;-69
2023/10/19 02:11:23;;;;;;;0.70;0.70;;;;;;;10.96;67.05;98797.19;5159219;27;20115;-68
2023/10/19 02:13:54;;;;;;;0.98;0.93;;;;;;;10.93;67.40;98776.81;5159240;27;20053;-69
2023/10/19 02:16:25;;;;;;;1.88;1.67;;;;;;;10.90;68.08;98771.75;5177421;27;20042;-69
2023/10/19 02:18:53;;;;;;;1.83;1.58;;;;;;;10.89;67.88;98768.38;5158821;27;20492;-70
2023/10/19 02:21:23;;;;;;;0.77;0.75;;;;;;;10.88;68.46;98765.81;5158741;27;20087;-70
2023/10/19 02:23:52;;;;;;;1.58;1.48;;;;;;;10.91;68.13;98753.03;5177447;27;20046;-70
2023/10/19 02:26:22;;;;;;;2.15;1.75;;;;;;;10.90;68.52;98747.06;5177188;27;20102;-70
2023/10/19 02:28:51;;;;;;;4.88;2.75;;;;;;;10.90;68.77;98751.31;5158956;27;20543;-69
2023/10/19 02:31:21;;;;;;;1.40;1.25;;;;;;;10.93;68.91;98757.22;5158411;27;20035;-70
2023/10/19 02:33:58;;;;;;;1.40;1.27;;;;;;;10.95;68.97;98729.09;5176717;27;20064;-70
2023/10/19 02:36:29;;;;;;;2.40;2.20;;;;;;;10.93;69.85;98747.03;5158494;27;20037;-71
2023/10/19 02:39:00;;;;;;;1.27;1.17;;;;;;;10.91;69.97;98727.50;5158818;27;20396;-71
2023/10/19 02:41:28;;;;;;;1.40;1.30;;;;;;;10.91;70.54;98738.56;5177298;27;20038;-67
2023/10/19 02:44:08;;;;;;;2.20;2.00;;;;;;;10.91;70.90;98727.50;5176769;27;20046;-67
2023/10/19 02:46:38;;;;;;;;;;;;;;;10.92;71.07;98731.75;5177552;27;20070;-68
2023/10/19 02:49:11;;;;;;;1.60;1.50;;;;;;;10.91;71.19;98722.38;5158260;27;19925;-70
2023/10/19 02:51:40;;;;;;;2.22;1.60;;;;;;;10.91;71.36;98712.19;5176993;27;20403;-67
2023/10/19 02:54:17;;;;;;;2.15;1.80;;;;;;;10.89;71.74;98694.34;5176733;27;20042;-69
2023/10/19 02:56:48;;;;;;;3.75;2.20;;;;;;;10.86;71.74;98698.66;5176576;27;20046;-71
2023/10/19 02:59:21;;;;;;;4.45;2.05;;;;;;;10.86;72.50;98683.34;5176745;27;20395;-71
2023/10/19 03:01:52;;;;;;;1.45;1.25;;;;;;;10.86;72.52;98693.53;5176587;27;20049;-66
2023/10/19 03:04:20;;;;;;;2.55;2.08;;;;;;;10.86;72.97;98685.88;5176524;27;20042;-71
2023/10/19 03:06:51;;;;;;;1.42;1.33;;;;;;;10.88;72.79;98691.81;5176630;27;20057;-67
2023/10/19 03:09:28;;;;;;;2.13;1.73;;;;;;;10.84;73.29;98700.41;5158250;27;20102;-69
2023/10/19 03:12:03;;;;;;;3.15;2.83;;;;;;;10.85;73.57;98676.53;5176747;27;20046;-70
2023/10/19 03:14:32;;;;;;;1.73;1.55;;;;;;;10.85;73.78;98673.97;5157798;27;20118;-70
2023/10/19 03:17:02;;;;;;;6.70;3.33;;;;;;;10.84;74.09;98674.88;5157672;27;20389;-69
2023/10/19 03:19:31;;;;;;;2.83;2.45;;;;;;;10.85;74.40;98679.94;5176517;27;20419;-69
2023/10/19 03:22:00;;;;;;;3.53;2.10;;;;;;;10.88;74.71;98686.69;5176232;27;20095;-67
2023/10/19 03:27:15;;;;;;;4.75;3.65;;;;;;;10.93;74.87;98674.69;5176139;27;20042;-68
2023/10/19 03:29:47;;;;;;;3.75;2.45;;;;;;;10.94;74.61;98671.28;5176258;27;20484;-65
2023/10/19 03:32:18;;;;;;;3.20;2.42;;;;;;;10.94;74.64;98672.09;5157656;27;20038;-70
2023/10/19 03:34:50;;;;;;;2.03;1.83;;;;;;;10.99;75.00;98674.59;5175788;27;20050;-70
2023/10/19 03:37:21;;;;;;;1.90;1.65;;;;;;;11.03;74.55;98681.31;5176389;27;20383;-70
2023/10/19 03:39:56;;;;;;;1.48;1.38;;;;;;;11.02;74.76;98669.41;5176665;27;20046;-70
2023/10/19 03:42:28;;;;;;;3.10;1.55;;;;;;;11.06;74.78;98663.41;5176070;27;20042;-69
2023/10/19 03:44:57;;;;;;;2.05;1.85;;;;;;;11.06;74.69;98660.84;5157359;27;20050;-70
2023/10/19 03:47:34;;;;;;;2.42;2.17;;;;;;;11.11;74.66;98664.16;5157314;27;20042;-70
2023/10/19 03:50:06;;;;;;;3.05;2.85;;;;;;;11.12;74.71;98660.72;5175862;27;20046;-70
2023/10/19 03:52:38;;;;;;;2.38;2.17;;;;;;;11.11;74.41;98644.53;5157292;27;20079;-70
2023/10/19 03:55:16;;;;;;;2.22;2.03;;;;;;;11.13;74.50;98642.78;5157678;27;20054;-68
2023/10/19 03:57:50;;;;;;;2.37;1.63;;;;;;;11.14;74.40;98629.16;5157370;27;20049;-70
2023/10/19 04:00:22;;;;;;;1.95;1.77;;;;;;;11.15;74.73;98633.41;5176133;27;20045;-70
2023/10/19 04:02:54;;;;;;;3.60;2.30;;;;;;;11.19;74.67;98626.53;5157229;27;20046;-69
2023/10/19 04:05:25;;;;;;;2.50;1.13;;;;;;;11.19;74.77;98617.16;5175834;27;20050;-70
2023/10/19 04:07:55;;;;;;;2.55;2.30;;;;;;;11.21;74.88;98614.56;5175675;27;20432;-70
2023/10/19 04:13:10;;;;;;;1.27;1.17;;;;;;;11.29;74.84;98607.59;5175779;27;20111;-71
2023/10/19 04:15:42;;;;;;;2.17;1.52;;;;;;;11.31;74.78;98596.47;5175699;27;20046;-71
2023/10/19 04:18:11;;;;;;;1.50;1.35;;;;;;;11.34;74.88;98601.53;5175487;27;20049;-71
2023/10/19 04:20:56;;;;;;;4.25;3.03;;;;;;;11.38;74.82;98592.06;5176009;27;20373;-71
2023/10/19 04:23:28;;;;;;;1.80;1.60;;;;;;;11.39;74.98;98593.75;5179894;27;20045;-71
2023/10/19 04:25:58;;;;;;;1.88;1.45;;;;;;;11.40;74.96;98582.66;5179621;27;20050;-71
2023/10/19 04:28:38;;;;;;;2.10;1.55;;;;;;;11.43;74.85;98580.03;5180034;27;20110;-70
2023/10/19 04:31:13;;;;;;;1.17;1.08;;;;;;;11.47;74.97;98585.94;5179801;27;20153;-69
2023/10/19 04:33:45;;;;;;;1.42;1.33;;;;;;;11.47;75.19;98580.81;5179151;27;20495;-71
2023/10/19 04:36:16;;;;;;;0.93;0.93;;;;;;;11.49;75.14;98574.81;5161627;27;20413;-70
2023/10/19 04:38:45;;;;;;;2.53;2.03;;;;;;;11.51;75.26;98567.09;5179316;27;20050;-71
2023/10/19 04:41:15;;;;;;;1.40;1.30;;;;;;;11.52;75.46;98564.50;5179211;27;20045;-71
2023/10/19 04:43:49;;;;;;;0.95;0.73;;;;;;;11.55;75.48;98564.44;5179382;27;20061;-71
2023/10/19 04:46:19;;;;;;;2.08;1.90;;;;;;;11.57;75.56;98564.38;5179480;27;20050;-70
2023/10/19 04:48:49;;;;;;;1.88;1.77;;;;;;;11.59;75.64;98555.81;5179077;27;20046;-70
2023/10/19 04:51:18;;;;;;;3.50;1.85;;;;;;;11.58;75.92;98554.16;5179289;27;20444;-71
2023/10/19 04:53:47;;;;;;;3.30;1.77;;;;;;;11.61;75.95;98551.53;5179604;27;20042;-72
2023/10/19 04:56:17;;;;;;;2.10;1.70;;;;;;;11.62;75.85;98544.69;5178879;27;20060;-67
2023/10/19 04:58:47;;;;;;;3.15;1.83;;;;;;;11.64;75.96;98538.66;5178742;27;20094;-69
2023/10/19 05:01:16;;;;;;;2.13;1.95;;;;;;;11.66;76.13;98542.00;5178996;27;20033;-69
2023/10/19 05:03:45;;;;;;;3.00;1.90;;;;;;;11.68;76.08;98537.78;5178709;27;20053;-66
2023/10/19 05:06:14;;;;;;;1.55;1.45;;;;;;;11.72;75.79;98526.59;5178669;27;20307;-69
2023/10/19 05:08:43;;;;;;;4.28;2.58;;;;;;;11.75;76.03;98531.63;5178614;27;20045;-66
2023/10/19 05:11:12;;;;;;;1.33;1.23;;;;;;;11.77;75.88;98532.44;5178703;27;20043;-72
2023/10/19 05:13:42;;;;;;;1.80;1.58;;;;;;;11.78;75.99;98525.59;5178556;27;20091;-69
2023/10/19 05:16:11;;;;;;;3.03;2.72;;;;;;;11.78;76.18;98531.53;5179221;27;20090;-72
2023/10/19 05:18:40;;;;;;;1.90;1.67;;;;;;;11.79;76.03;98530.66;5178393;27;20031;-70
2023/10/19 05:21:10;;;;;;;1.65;1.35;;;;;;;11.82;76.15;98528.06;5178411;27;20513;-71
2023/10/19 05:23:38;;;;;;;2.95;2.08;;;;;;;11.83;76.07;98534.00;5178389;27;20046;-70
2023/10/19 05:26:07;;;;;;;3.37;2.37;;;;;;;11.84;76.08;98536.53;5178328;27;20130;-69
2023/10/19 05:28:36;;;;;;;2.35;1.75;;;;;;;11.84;76.02;98536.53;5178126;27;20117;-70
2023/10/19 05:31:08;;;;;;;1.33;1.17;;;;;;;11.88;76.33;98534.72;5178509;27;20487;-70
2023/10/19 05:33:37;;;;;;;2.97;1.73;;;;;;;11.90;76.05;98536.34;5177965;27;20435;-70
2023/10/19 05:36:06;;;;;;;2.05;1.85;;;;;;;11.90;76.11;98536.34;5178223;27;20050;-71
2023/10/19 05:38:35;;;;;;;1.50;1.40;;;;;;;11.90;76.33;98541.47;5178319;27;20440;-70
2023/10/19 05:41:04;;;;;;;2.05;1.30;;;;;;;11.94;76.22;98530.31;5178763;27;20046;-71
2023/10/19 05:43:34;;;;;;;2.85;2.22;;;;;;;11.92;76.62;98529.50;5178058;27;20049;-69
2023/10/19 05:46:03;;;;;;;;;;;;;;;11.93;76.68;98535.44;5178360;27;20050;-65
2023/10/19 05:48:33;;;;;;;0.65;0.65;;;;;;;11.91;76.11;98532.94;5163456;27;19919;-68
2023/10/19 05:51:02;;;;;;;1.95;1.73;;;;;;;11.90;76.26;98535.53;5160244;27;20042;-70
2023/10/19 05:53:32;;;;;;;0.65;0.65;;;;;;;11.87;76.26;98539.00;5157346;27;20392;-71
2023/10/19 05:56:01;;;;;;;3.20;1.57;;;;;;;11.88;76.27;98538.09;5166978;27;20049;-70
2023/10/19 05:58:29;;;;;;;2.30;1.63;;;;;;;11.88;76.45;98521.94;5157465;27;20301;-72
2023/10/19 06:01:00;;;;;;;2.23;1.57;;;;;;;11.89;76.45;98521.91;5155423;27;20102;-71
2023/10/19 06:03:29;;;;;;;1.98;1.48;;;;;;;11.89;76.43;98527.03;5156128;27;20100;-71
2023/10/19 06:05:59;;;;;;;14.88;1.73;;;;;;;11.90;76.57;98518.47;5156871;27;20488;-68
2023/10/19 06:08:28;;;;;;;2.42;1.80;;;;;;;11.91;76.63;98520.16;5156680;27;20125;-69
2023/10/19 06:10:57;;;;;;;2.72;2.10;;;;;;;11.93;76.68;98518.38;5137852;27;20560;-69
2023/10/19 06:13:26;;;;;;;1.93;1.50;;;;;;;11.95;76.82;98514.06;5156516;27;20063;-71
2023/10/19 06:15:56;;;;;;;1.63;1.52;;;;;;;11.98;76.72;98519.13;5156086;27;20339;-71
2023/10/19 06:18:25;;;;;;;1.33;1.23;;;;;;;12.01;76.75;98502.84;5155621;27;20038;-70
2023/10/19 06:20:54;;;;;;;3.33;1.30;;;;;;;12.02;76.70;98510.47;5156227;27;20327;-72
2023/10/19 06:23:25;;;;;;;2.53;2.28;;;;;;;12.07;76.51;98507.81;5156263;27;20043;-72
2023/10/19 06:25:54;;;;;;;2.78;1.92;;;;;;;12.10;76.56;98507.72;5171760;27;20034;-72
2023/10/19 06:28:23;;;;;;;2.38;1.77;;;;;;;12.10;76.57;98500.91;5158650;27;20484;-69
2023/10/19 06:30:52;;;;;;;6.03;1.80;;;;;;;12.08;76.62;98510.34;5177324;27;20389;-71
2023/10/19 06:33:22;;;;;;;;;;;;;;;12.10;76.67;98513.69;5177328;27;20274;-72
2023/10/19 06:35:52;;;;;;;1.00;0.93;;;;;;;12.10;76.87;98518.81;5158770;27;19919;-73
2023/10/19 06:38:20;;;;;;;1.67;1.57;;;;;;;12.11;76.66;98514.53;5156941;27;20039;-65
2023/10/19 06:40:51;;;;;;;0.70;0.70;;;;;;;12.10;76.80;98511.13;5164332;27;20038;-73
2023/10/19 06:43:23;;;;;;;1.75;1.63;;;;;;;12.12;76.80;98505.16;5154867;27;20095;-68
2023/10/19 06:45:52;;;;;;;2.55;2.10;;;;;;;12.16;76.72;98506.75;5156059;27;20488;-72
2023/10/19 06:48:21;;;;;;;2.20;1.90;;;;;;;12.16;76.85;98504.19;5158888;27;20034;-71
2023/10/19 06:50:50;;;;;;;2.92;2.05;;;;;;;12.19;76.88;98502.38;5172229;27;20042;-73
2023/10/19 06:53:21;;;;;;;4.95;1.75;;;;;;;12.21;76.64;98502.34;5176838;27;20038;-71
2023/10/19 06:55:52;;;;;;;2.72;1.40;;;;;;;12.24;76.98;98499.72;5175651;27;20042;-71
2023/10/19 06:58:21;;;;;;;2.63;2.03;;;;;;;12.25;76.72;98496.25;5156765;27;20522;-71
2023/10/19 07:00:56;;;;;;;4.03;2.60;;;;;;;12.25;76.67;98501.38;5136799;27;20129;-68
2023/10/19 07:03:25;;;;;;;1.98;1.77;;;;;;;12.24;76.95;98494.59;5155764;27;20035;-72
2023/10/19 07:05:54;;;;;;;1.30;1.20;;;;;;;12.27;76.73;98494.50;5156122;27;20488;-71
2023/10/19 07:08:23;;;;;;;2.00;1.85;;;;;;;12.27;76.94;98486.81;5155448;27;20046;-72
2023/10/19 07:10:54;;;;;;;4.10;2.97;;;;;;;12.25;76.84;98480.91;5153862;27;20496;-70
2023/10/19 07:13:23;;;;;;;1.63;1.48;;;;;;;12.26;76.80;98474.94;5155691;27;20060;-70
2023/10/19 07:15:52;;;;;;;2.23;1.63;;;;;;;12.28;76.90;98465.50;5154725;27;20093;-71
2023/10/19 07:18:21;;;;;;;2.95;2.58;;;;;;;12.30;76.92;98463.72;5161965;27;20290;-71
2023/10/19 07:20:52;;;;;;;3.42;2.15;;;;;;;12.32;76.72;98461.97;5176599;27;20094;-69
2023/10/19 07:23:21;;;;;;;1.42;1.27;;;;;;;12.32;76.87;98451.72;5176226;27;20046;-70
2023/10/19 07:25:54;;;;;;;1.73;1.63;;;;;;;12.33;76.98;98449.16;5176486;27;20038;-69
2023/10/19 07:28:26;;;;;;;1.52;1.38;;;;;;;12.35;76.81;98444.81;5166720;27;20043;-71
2023/10/19 07:30:56;;;;;;;13.45;3.45;;;;;;;12.40;76.87;98449.81;5155413;27;20042;-71
2023/10/19 07:33:26;;;;;;;1.10;1.00;;;;;;;12.41;76.97;98451.47;5155442;27;20047;-71
2023/10/19 07:35:55;;;;;;;;;;;;;;;12.40;76.53;98442.13;5155411;27;20047;-68
2023/10/19 07:38:25;;;;;;;1.02;1.02;;;;;;;12.42;76.75;98435.25;5162277;27;19979;-72
2023/10/19 07:40:54;;;;;;;2.58;2.38;;;;;;;12.43;76.90;98436.94;5176056;27;20128;-69
2023/10/19 07:43:25;;;;;;;2.25;2.05;;;;;;;12.44;76.66;98436.88;5175958;27;20052;-71
2023/10/19 07:45:56;;;;;;;1.60;1.50;;;;;;;12.44;76.61;98434.31;5176648;27;20472;-72
2023/10/19 07:48:26;;;;;;;1.17;1.08;;;;;;;12.45;76.82;98427.50;5167361;27;20385;-71
2023/10/19 07:50:55;;;;;;;1.50;1.40;;;;;;;12.45;76.93;98428.31;5136804;27;20141;-72
2023/10/19 07:53:24;;;;;;;1.63;1.27;;;;;;;12.44;76.92;98418.97;5155030;27;20035;-71
2023/10/19 07:55:53;;;;;;;1.42;1.33;;;;;;;12.42;76.86;98423.28;5155374;27;20034;-70
2023/10/19 07:58:23;;;;;;;2.05;1.02;;;;;;;12.41;76.86;98411.38;5158917;27;20043;-70
2023/10/19 08:00:53;;;;;;;1.88;1.52;;;;;;;12.40;76.75;98408.88;5159388;27;20043;-72
2023/10/19 08:03:22;;;;;;;3.03;1.80;;;;;;;12.39;77.17;98412.28;5159352;27;20129;-68
2023/10/19 08:05:51;;;;;;;1.83;1.03;;;;;;;12.41;77.17;98410.53;5158089;27;20088;-71
2023/10/19 08:08:20;;;;;;;5.70;3.00;;;;;;;12.41;76.87;98415.66;5159062;27;20787;-72
2023/10/19 08:10:49;;;;;;;2.20;1.80;;;;;;;12.37;76.94;98414.06;5158949;27;20038;-72
2023/10/19 08:13:18;;;;;;;1.67;1.23;;;;;;;12.35;77.09;98413.28;5140726;27;20511;-71
2023/10/19 08:15:48;;;;;;;5.17;3.90;;;;;;;12.36;77.12;98409.81;5156751;27;20049;-72
2023/10/19 08:18:17;;;;;;;3.15;2.50;;;;;;;12.36;77.21;98402.13;5156036;27;20070;-71
2023/10/19 08:20:48;;;;;;;2.30;2.10;;;;;;;12.35;77.43;98406.44;5160692;27;20046;-71
2023/10/19 08:23:23;;;;;;;3.78;2.25;;;;;;;12.37;77.39;98398.72;5158653;27;20043;-70
2023/10/19 08:25:52;;;;;;;1.23;1.13;;;;;;;12.39;77.04;98396.94;5158948;27;20046;-71
2023/10/19 08:28:25;;;;;;;1.27;1.15;;;;;;;12.41;77.05;98392.63;5158567;27;20076;-69
2023/10/19 08:31:00;;;;;;;1.13;0.98;;;;;;;12.39;77.09;98384.16;5158769;27;20399;-71
2023/10/19 08:33:33;;;;;;;1.92;1.52;;;;;;;12.41;77.25;98379.81;5158356;27;20512;-71
2023/10/19 08:36:04;;;;;;;4.38;1.45;;;;;;;12.43;77.11;98388.31;5139994;27;20050;-72
2023/10/19 08:38:33;;;;;;;1.70;1.48;;;;;;;12.48;77.07;98386.44;5160668;27;20403;-72
2023/10/19 08:41:03;;;;;;;2.20;2.00;;;;;;;12.51;77.38;98378.69;5158537;27;20523;-67
2023/10/19 08:43:33;;;;;;;1.50;1.40;;;;;;;12.52;76.84;98377.81;5158683;27;20456;-69
2023/10/19 08:46:04;;;;;;;1.35;1.00;;;;;;;12.55;76.93;98385.38;5158193;27;20141;-71
2023/10/19 08:48:36;;;;;;;0.98;0.95;;;;;;;12.58;76.70;98380.16;5159425;27;20037;-69
2023/10/19 08:51:11;;;;;;;1.90;1.75;;;;;;;12.60;76.77;98373.28;5162885;27;20053;-70
2023/10/19 08:53:44;;;;;;;10.15;2.15;;;;;;;12.65;76.54;98368.88;5166174;27;20403;-73
2023/10/19 08:56:13;;;;;;;1.30;1.20;;;;;;;12.67;76.80;98372.22;5158252;27;20046;-72
2023/10/19 08:58:42;;;;;;;2.10;1.90;;;;;;;12.71;76.70;98373.81;5160038;27;20050;-72
2023/10/19 09:01:13;;;;;;;0.87;0.87;;;;;;;12.76;76.90;98382.19;5160810;27;20107;-72
2023/10/19 09:03:42;;;;;;;1.40;1.30;;;;;;;12.78;76.43;98376.16;5175380;27;20042;-71
2023/10/19 09:06:14;;;;;;;1.80;1.42;;;;;;;12.80;76.41;98373.53;5178944;27;20577;-72
2023/10/19 09:08:46;;;;;;;0.65;0.65;;;;;;;12.79;76.30;98375.25;5159368;27;20047;-71
2023/10/19 09:11:18;;;;;;;1.95;1.77;;;;;;;12.81;76.18;98375.22;5164593;27;20039;-67
2023/10/19 09:13:49;;;;;;;1.27;1.17;;;;;;;12.79;76.15;98366.72;5178610;27;20045;-71
2023/10/19 09:16:22;;;;;;;1.10;0.95;;;;;;;12.82;76.34;98365.78;5179108;27;20392;-71
2023/10/19 09:18:52;;;;;;;0.85;0.82;;;;;;;12.85;76.13;98361.44;5179047;27;20038;-71
2023/10/19 09:21:25;;;;;;;1.17;1.10;;;;;;;12.90;76.46;98363.84;5169172;27;20053;-71
2023/10/19 09:23:55;;;;;;;0.95;0.95;;;;;;;12.97;76.34;98371.28;5156836;27;20510;-70
2023/10/19 09:26:25;;;;;;;3.33;1.75;;;;;;;13.01;76.13;98370.31;5157901;27;20050;-71
2023/10/19 09:28:55;;;;;;;1.90;1.45;;;;;;;13.04;76.32;98372.78;5139149;27;20045;-72
2023/10/19 09:31:25;;;;;;;1.48;1.30;;;;;;;13.07;76.10;98372.72;5157609;27;20038;-69
2023/10/19 09:33:56;;;;;;;0.85;0.82;;;;;;;13.09;76.04;98370.94;5156994;27;20146;-72
2023/10/19 09:36:29;;;;;;;2.03;1.65;;;;;;;13.10;76.38;98357.22;5138887;27;20043;-68
2023/10/19 09:38:58;;;;;;;5.30;1.55;;;;;;;13.11;76.19;98364.03;5157809;27;20503;-72
2023/10/19 09:41:29;;;;;;;0.95;0.85;;;;;;;13.11;76.11;98364.03;5156597;27;20078;-72
2023/10/19 09:44:06;;;;;;;0.88;0.88;;;;;;;13.16;75.94;98357.03;5163954;27;20054;-72
2023/10/19 09:46:39;;;;;;;1.88;1.48;;;;;;;13.19;76.21;98349.25;5157355;27;20069;-71
2023/10/19 09:49:13;;;;;;;5.50;1.33;;;;;;;13.21;76.09;98357.75;5157179;27;20043;-71
2023/10/19 09:51:45;;;;;;;1.20;1.10;;;;;;;13.24;76.42;98342.28;5157342;27;20042;-70
2023/10/19 09:54:47;;;;;;;0.80;0.80;;;;;;;13.30;76.02;98338.66;5158883;27;20046;-70
2023/10/19 09:57:22;;;;;;;2.35;1.00;;;;;;;13.29;76.35;98332.69;5156896;27;20159;-71
2023/10/19 10:00:07;;;;;;;1.55;1.40;;;;;;;13.31;76.08;98325.81;5156642;27;20046;-71
2023/10/19 10:02:46;;;;;;;2.45;1.58;;;;;;;13.36;76.17;98317.97;5156797;27;20130;-71
2023/10/19 10:05:36;;;;;;;1.05;1.02;;;;;;;13.41;76.51;98314.31;5160952;27;20039;-70
2023/10/19 10:08:27;;;;;;;2.47;1.95;;;;;;;13.47;76.42;98309.88;5156965;27;20066;-72
2023/10/19 10:10:56;;;;;;;1.75;1.58;;;;;;;13.48;75.88;98309.00;5138447;27;20043;-72
2023/10/19 10:13:39;;;;;;;1.17;1.03;;;;;;;13.50;76.32;98304.66;5156801;27;20484;-71
2023/10/19 10:16:08;;;;;;;1.58;1.42;;;;;;;13.50;75.83;98295.25;5164604;27;20770;-70
2023/10/19 10:18:41;;;;;;;2.45;1.90;;;;;;;13.52;76.27;98287.50;5176395;27;20049;-70
2023/10/19 10:21:12;;;;;;;2.03;1.88;;;;;;;13.55;76.01;98284.84;5177259;27;20042;-70
2023/10/19 10:23:43;;;;;;;1.05;1.00;;;;;;;13.59;75.94;98278.69;5177208;27;20065;-71
2023/10/19 10:26:13;;;;;;;0.60;0.60;;;;;;;13.62;76.01;98278.59;5157389;27;20050;-72
2023/10/19 10:28:47;;;;;;;3.35;2.42;;;;;;;13.59;75.90;98273.56;5169791;27;20035;-73
2023/10/19 10:31:21;;;;;;;2.55;1.88;;;;;;;13.57;75.82;98275.38;5169736;27;20082;-72
2023/10/19 10:33:54;;;;;;;0.95;0.93;;;;;;;13.53;76.31;98268.69;5175428;27;20061;-73
2023/10/19 10:36:26;;;;;;;1.25;1.15;;;;;;;13.53;76.25;98263.56;5176934;27;20043;-73
2023/10/19 10:39:04;;;;;;;2.67;1.42;;;;;;;13.54;75.84;98254.97;5177150;27;20441;-68
2023/10/19 10:41:33;;;;;;;2.30;1.88;;;;;;;13.52;76.24;98252.47;5175237;27;20070;-73
2023/10/19 10:44:03;;;;;;;2.03;1.90;;;;;;;13.58;76.34;98256.53;5176180;27;20042;-73
2023/10/19 10:46:32;;;;;;;2.38;1.48;;;;;;;13.62;76.39;98258.09;5177586;27;20073;-73
2023/10/19 10:49:09;;;;;;;2.30;1.08;;;;;;;13.64;75.91;98252.03;5177433;27;20061;-72
2023/10/19 10:51:41;;;;;;;1.27;1.17;;;;;;;13.65;76.18;98240.06;5175382;27;20122;-71
2023/10/19 10:54:13;;;;;;;1.83;1.60;;;;;;;13.67;75.95;98230.56;5176913;27;20095;-72
2023/10/19 10:56:43;;;;;;;2.17;1.67;;;;;;;13.67;76.14;98235.69;5157836;27;20487;-73
2023/10/19 10:59:16;;;;;;;2.08;1.83;;;;;;;13.66;75.95;98229.72;5176965;27;20121;-72
2023/10/19 11:01:45;;;;;;;2.75;1.35;;;;;;;13.71;75.76;98234.69;5175073;27;20519;-72
2023/10/19 11:04:16;;;;;;;3.28;1.40;;;;;;;13.74;75.48;98232.00;5176868;27;20035;-72
2023/10/19 11:06:55;;;;;;;2.85;1.40;;;;;;;13.77;75.85;98229.34;5176381;27;20046;-73
2023/10/19 11:09:24;;;;;;;5.40;1.95;;;;;;;13.77;76.06;98235.28;5177033;27;20154;-72
2023/10/19 11:11:53;;;;;;;3.35;2.05;;;;;;;13.79;76.06;98227.56;5175132;27;20125;-71
2023/10/19 11:14:24;;;;;;;2.85;2.53;;;;;;;13.83;75.75;98226.53;5176552;27;20042;-69
2023/10/19 11:16:56;;;;;;;0.85;0.70;;;;;;;13.85;76.06;98219.63;5176329;27;20151;-72
2023/10/19 11:22:18;;;;;;;2.85;1.50;;;;;;;13.85;75.80;98217.06;5112106;27;20759;-72
2023/10/19 11:24:48;;;;;;;1.70;1.38;;;;;;;13.87;76.06;98208.41;5111228;28;20551;-71
2023/10/19 11:27:26;;;;;;;1.30;1.20;;;;;;;13.89;75.99;98208.38;5111327;28;20494;-72
2023/10/19 11:29:56;;;;;;;2.35;1.75;;;;;;;13.90;75.73;98197.22;5109528;28;20401;-74
2023/10/19 11:32:26;;;;;;;1.95;1.30;;;;;;;13.93;75.79;98208.19;5109356;28;20040;-71
2023/10/19 11:34:56;;;;;;;3.83;1.58;;;;;;;13.96;75.42;98200.38;5099637;28;20051;-72
2023/10/19 11:37:26;;;;;;;1.55;1.35;;;;;;;13.99;75.49;98207.13;5108287;28;20393;-72
2023/10/19 11:39:56;;;;;;;1.27;1.10;;;;;;;13.99;75.78;98207.13;5111122;28;20050;-72
2023/10/19 11:42:24;;;;;;;1.95;1.05;;;;;;;13.99;75.78;98207.13;5111254;28;20393;-72
2023/10/19 11:44:54;;;;;;;2.38;1.65;;;;;;;13.98;75.86;98210.59;5110104;28;20028;-72
2023/10/19 11:47:23;;;;;;;1.70;1.42;;;;;;;14.01;75.87;98202.78;5111263;28;20040;-72
2023/10/19 11:49:53;;;;;;;1.52;1.42;;;;;;;14.05;75.43;98204.31;5111445;28;20043;-72
2023/10/19 11:52:22;;;;;;;2.33;2.10;;;;;;;14.08;75.39;98201.66;5110870;28;20043;-72
2023/10/19 11:54:54;;;;;;;1.33;1.23;;;;;;;14.08;75.49;98202.47;5109966;28;20043;-72
2023/10/19 11:57:26;;;;;;;1.67;1.58;;;;;;;14.10;75.30;98210.13;5108736;28;20298;-71
2023/10/19 11:59:55;;;;;;;2.45;1.98;;;;;;;14.10;75.85;98205.00;5101848;28;20032;-72
2023/10/19 12:02:26;;;;;;;2.13;1.92;;;;;;;14.07;75.52;98187.16;5109696;28;20036;-72
2023/10/19 12:04:55;;;;;;;1.25;1.15;;;;;;;14.09;75.85;98198.16;5111169;28;20039;-72
2023/10/19 12:07:24;;;;;;;5.03;3.07;;;;;;;14.09;75.92;98198.16;5108393;28;20036;-72